sensor_id;sensor_type;location;lat;lon;timestamp;temperature;humidity
38684;DHT22;24910;53.248;-6.134;2023-04-24T00:01:22;11.90;83.90
38684;DHT22;24910;53.248;-6.134;2023-04-24T00:03:51;11.90;84.00
38684;DHT22;24910;53.248;-6.134;2023-04-24T00:06:22;11.90;84.20
38684;DHT22;24910;53.248;-6.134;2023-04-24T00:08:51;11.90;84.30
38684;DHT22;24910;53.248;-6.134;2023-04-24T00:11:20;11.90;85.30
38684;DHT22;24910;53.248;-6.134;2023-04-24T00:13:49;11.90;84.40
38684;DHT22;24910;53.248;-6.134;2023-04-24T00:16:18;11.90;84.50
38684;DHT22;24910;53.248;-6.134;2023-04-24T00:18:47;11.90;84.60
38684;DHT22;24910;53.248;-6.134;2023-04-24T00:21:16;11.90;84.60
38684;DHT22;24910;53.248;-6.134;2023-04-24T00:23:47;11.90;84.60
38684;DHT22;24910;53.248;-6.134;2023-04-24T00:26:16;11.90;84.60
38684;DHT22;24910;53.248;-6.134;2023-04-24T00:28:45;11.90;84.60
38684;DHT22;24910;53.248;-6.134;2023-04-24T00:31:14;11.80;84.60
38684;DHT22;24910;53.248;-6.134;2023-04-24T00:33:43;11.80;84.60
38684;DHT22;24910;53.248;-6.134;2023-04-24T00:36:12;11.80;84.60
38684;DHT22;24910;53.248;-6.134;2023-04-24T00:38:41;11.90;84.60
38684;DHT22;24910;53.248;-6.134;2023-04-24T00:41:12;11.80;84.50
38684;DHT22;24910;53.248;-6.134;2023-04-24T00:43:41;11.80;84.40
38684;DHT22;24910;53.248;-6.134;2023-04-24T00:46:10;11.80;84.40
38684;DHT22;24910;53.248;-6.134;2023-04-24T00:48:39;11.80;84.40
38684;DHT22;24910;53.248;-6.134;2023-04-24T00:51:08;11.80;84.30
38684;DHT22;24910;53.248;-6.134;2023-04-24T00:53:38;11.80;84.20
38684;DHT22;24910;53.248;-6.134;2023-04-24T00:56:07;11.80;85.10
38684;DHT22;24910;53.248;-6.134;2023-04-24T00:58:38;11.80;84.30
38684;DHT22;24910;53.248;-6.134;2023-04-24T01:01:07;11.80;84.30
38684;DHT22;24910;53.248;-6.134;2023-04-24T01:03:37;11.80;84.30
38684;DHT22;24910;53.248;-6.134;2023-04-24T01:06:07;11.80;84.30
38684;DHT22;24910;53.248;-6.134;2023-04-24T01:08:38;11.80;84.40
38684;DHT22;24910;53.248;-6.134;2023-04-24T01:11:08;11.80;84.40
38684;DHT22;24910;53.248;-6.134;2023-04-24T01:13:40;11.80;84.40
38684;DHT22;24910;53.248;-6.134;2023-04-24T01:16:10;11.80;84.40
38684;DHT22;24910;53.248;-6.134;2023-04-24T01:18:39;11.70;84.30
38684;DHT22;24910;53.248;-6.134;2023-04-24T01:21:09;11.70;84.40
38684;DHT22;24910;53.248;-6.134;2023-04-24T01:23:41;11.70;84.40
38684;DHT22;24910;53.248;-6.134;2023-04-24T01:26:10;11.70;84.50
38684;DHT22;24910;53.248;-6.134;2023-04-24T01:28:40;11.70;84.40
38684;DHT22;24910;53.248;-6.134;2023-04-24T01:31:09;11.60;84.40
38684;DHT22;24910;53.248;-6.134;2023-04-24T01:33:38;11.60;84.50
38684;DHT22;24910;53.248;-6.134;2023-04-24T01:36:09;11.50;84.50
38684;DHT22;24910;53.248;-6.134;2023-04-24T01:38:40;11.50;84.40
38684;DHT22;24910;53.248;-6.134;2023-04-24T01:41:10;11.50;84.30
38684;DHT22;24910;53.248;-6.134;2023-04-24T01:43:39;11.50;84.20
38684;DHT22;24910;53.248;-6.134;2023-04-24T01:46:08;11.50;84.20
38684;DHT22;24910;53.248;-6.134;2023-04-24T01:48:37;11.50;84.20
38684;DHT22;24910;53.248;-6.134;2023-04-24T01:51:07;11.50;84.10
38684;DHT22;24910;53.248;-6.134;2023-04-24T01:53:37;11.50;84.10
38684;DHT22;24910;53.248;-6.134;2023-04-24T01:56:07;11.50;84.00
38684;DHT22;24910;53.248;-6.134;2023-04-24T01:58:37;11.60;84.10
38684;DHT22;24910;53.248;-6.134;2023-04-24T02:01:06;11.60;84.00
38684;DHT22;24910;53.248;-6.134;2023-04-24T02:03:35;11.50;84.00
38684;DHT22;24910;53.248;-6.134;2023-04-24T02:06:05;11.50;84.00
38684;DHT22;24910;53.248;-6.134;2023-04-24T02:08:34;11.60;84.00
38684;DHT22;24910;53.248;-6.134;2023-04-24T02:11:03;11.60;84.00
38684;DHT22;24910;53.248;-6.134;2023-04-24T02:13:34;11.70;84.10
38684;DHT22;24910;53.248;-6.134;2023-04-24T02:16:04;11.60;84.00
38684;DHT22;24910;53.248;-6.134;2023-04-24T02:18:33;11.60;84.20
38684;DHT22;24910;53.248;-6.134;2023-04-24T02:21:02;11.50;84.20
38684;DHT22;24910;53.248;-6.134;2023-04-24T02:23:32;11.40;84.40
38684;DHT22;24910;53.248;-6.134;2023-04-24T02:26:01;11.30;84.50
38684;DHT22;24910;53.248;-6.134;2023-04-24T02:28:30;11.30;84.50
38684;DHT22;24910;53.248;-6.134;2023-04-24T02:31:00;11.30;84.50
38684;DHT22;24910;53.248;-6.134;2023-04-24T02:33:29;11.20;84.40
38684;DHT22;24910;53.248;-6.134;2023-04-24T02:35:58;11.30;84.40
38684;DHT22;24910;53.248;-6.134;2023-04-24T02:38:28;11.20;84.60
38684;DHT22;24910;53.248;-6.134;2023-04-24T02:40:57;11.30;84.20
38684;DHT22;24910;53.248;-6.134;2023-04-24T02:43:28;11.30;84.10
38684;DHT22;24910;53.248;-6.134;2023-04-24T02:45:57;11.30;84.10
38684;DHT22;24910;53.248;-6.134;2023-04-24T02:48:28;11.40;84.00
38684;DHT22;24910;53.248;-6.134;2023-04-24T02:50:57;11.40;83.80
38684;DHT22;24910;53.248;-6.134;2023-04-24T02:53:26;11.40;83.70
38684;DHT22;24910;53.248;-6.134;2023-04-24T02:55:57;11.50;83.60
38684;DHT22;24910;53.248;-6.134;2023-04-24T02:58:26;11.60;83.50
38684;DHT22;24910;53.248;-6.134;2023-04-24T03:00:55;11.60;83.40
38684;DHT22;24910;53.248;-6.134;2023-04-24T03:03:24;11.60;83.30
38684;DHT22;24910;53.248;-6.134;2023-04-24T03:05:55;11.60;83.30
38684;DHT22;24910;53.248;-6.134;2023-04-24T03:08:24;11.60;84.10
38684;DHT22;24910;53.248;-6.134;2023-04-24T03:10:53;11.60;83.20
38684;DHT22;24910;53.248;-6.134;2023-04-24T03:13:22;11.70;83.30
38684;DHT22;24910;53.248;-6.134;2023-04-24T03:15:51;11.70;83.40
38684;DHT22;24910;53.248;-6.134;2023-04-24T03:18:21;11.70;83.50
38684;DHT22;24910;53.248;-6.134;2023-04-24T03:20:52;11.70;83.60
38684;DHT22;24910;53.248;-6.134;2023-04-24T03:23:23;11.70;83.60
38684;DHT22;24910;53.248;-6.134;2023-04-24T03:25:52;11.70;83.70
38684;DHT22;24910;53.248;-6.134;2023-04-24T03:28:22;11.70;83.70
38684;DHT22;24910;53.248;-6.134;2023-04-24T03:30:58;11.70;83.90
38684;DHT22;24910;53.248;-6.134;2023-04-24T03:33:32;11.70;83.80
38684;DHT22;24910;53.248;-6.134;2023-04-24T03:36:01;11.70;83.90
38684;DHT22;24910;53.248;-6.134;2023-04-24T03:38:40;11.70;84.00
38684;DHT22;24910;53.248;-6.134;2023-04-24T03:41:30;11.70;84.00
38684;DHT22;24910;53.248;-6.134;2023-04-24T03:44:21;11.70;84.00
38684;DHT22;24910;53.248;-6.134;2023-04-24T03:46:51;11.70;83.90
38684;DHT22;24910;53.248;-6.134;2023-04-24T03:49:22;11.70;84.80
38684;DHT22;24910;53.248;-6.134;2023-04-24T03:51:51;11.70;84.00
38684;DHT22;24910;53.248;-6.134;2023-04-24T03:54:27;11.60;83.90
38684;DHT22;24910;53.248;-6.134;2023-04-24T03:56:57;11.60;84.00
38684;DHT22;24910;53.248;-6.134;2023-04-24T03:59:27;11.50;84.10
38684;DHT22;24910;53.248;-6.134;2023-04-24T04:02:14;11.50;84.30
38684;DHT22;24910;53.248;-6.134;2023-04-24T04:04:43;11.40;84.50
38684;DHT22;24910;53.248;-6.134;2023-04-24T04:07:13;11.40;84.60
38684;DHT22;24910;53.248;-6.134;2023-04-24T04:09:43;11.30;84.70
38684;DHT22;24910;53.248;-6.134;2023-04-24T04:12:13;11.40;85.00
38684;DHT22;24910;53.248;-6.134;2023-04-24T04:14:42;11.40;85.00
38684;DHT22;24910;53.248;-6.134;2023-04-24T04:17:11;11.40;85.10
38684;DHT22;24910;53.248;-6.134;2023-04-24T04:19:40;11.40;85.10
38684;DHT22;24910;53.248;-6.134;2023-04-24T04:22:10;11.40;85.30
38684;DHT22;24910;53.248;-6.134;2023-04-24T04:24:44;11.40;85.60
38684;DHT22;24910;53.248;-6.134;2023-04-24T04:27:14;11.30;85.70
38684;DHT22;24910;53.248;-6.134;2023-04-24T04:29:58;11.30;85.80
38684;DHT22;24910;53.248;-6.134;2023-04-24T04:32:30;11.20;86.00
38684;DHT22;24910;53.248;-6.134;2023-04-24T04:35:01;11.20;86.20
38684;DHT22;24910;53.248;-6.134;2023-04-24T04:37:33;11.10;86.40
38684;DHT22;24910;53.248;-6.134;2023-04-24T04:40:15;11.00;86.50
38684;DHT22;24910;53.248;-6.134;2023-04-24T04:42:51;11.00;86.80
38684;DHT22;24910;53.248;-6.134;2023-04-24T04:45:21;10.90;87.00
38684;DHT22;24910;53.248;-6.134;2023-04-24T04:48:24;10.70;87.30
38684;DHT22;24910;53.248;-6.134;2023-04-24T04:50:53;10.60;87.90
38684;DHT22;24910;53.248;-6.134;2023-04-24T04:53:23;10.60;88.20
38684;DHT22;24910;53.248;-6.134;2023-04-24T04:55:53;10.60;88.40
38684;DHT22;24910;53.248;-6.134;2023-04-24T04:58:27;10.60;88.80
38684;DHT22;24910;53.248;-6.134;2023-04-24T05:00:59;10.60;89.00
38684;DHT22;24910;53.248;-6.134;2023-04-24T05:03:33;10.50;89.20
38684;DHT22;24910;53.248;-6.134;2023-04-24T05:06:06;10.40;89.40
38684;DHT22;24910;53.248;-6.134;2023-04-24T05:08:38;10.40;89.50
38684;DHT22;24910;53.248;-6.134;2023-04-24T05:11:13;10.40;89.50
38684;DHT22;24910;53.248;-6.134;2023-04-24T05:13:42;10.40;89.50
38684;DHT22;24910;53.248;-6.134;2023-04-24T05:16:23;10.50;89.50
38684;DHT22;24910;53.248;-6.134;2023-04-24T05:18:54;10.50;89.50
38684;DHT22;24910;53.248;-6.134;2023-04-24T05:21:29;10.50;89.70
38684;DHT22;24910;53.248;-6.134;2023-04-24T05:23:58;10.50;89.80
38684;DHT22;24910;53.248;-6.134;2023-04-24T05:26:58;10.40;90.10
38684;DHT22;24910;53.248;-6.134;2023-04-24T05:29:35;10.10;90.30
38684;DHT22;24910;53.248;-6.134;2023-04-24T05:32:05;10.00;90.50
38684;DHT22;24910;53.248;-6.134;2023-04-24T05:34:35;9.90;90.60
38684;DHT22;24910;53.248;-6.134;2023-04-24T05:37:04;9.80;91.00
38684;DHT22;24910;53.248;-6.134;2023-04-24T05:39:36;9.70;90.70
38684;DHT22;24910;53.248;-6.134;2023-04-24T05:42:07;9.60;90.80
38684;DHT22;24910;53.248;-6.134;2023-04-24T05:44:36;9.50;91.00
38684;DHT22;24910;53.248;-6.134;2023-04-24T05:47:05;9.40;91.00
38684;DHT22;24910;53.248;-6.134;2023-04-24T05:49:34;9.30;91.10
38684;DHT22;24910;53.248;-6.134;2023-04-24T05:52:03;9.30;91.10
38684;DHT22;24910;53.248;-6.134;2023-04-24T05:54:34;9.30;91.00
38684;DHT22;24910;53.248;-6.134;2023-04-24T05:57:03;9.20;90.90
38684;DHT22;24910;53.248;-6.134;2023-04-24T05:59:50;9.10;90.90
38684;DHT22;24910;53.248;-6.134;2023-04-24T06:02:20;9.10;90.90
38684;DHT22;24910;53.248;-6.134;2023-04-24T06:04:51;9.00;90.80
38684;DHT22;24910;53.248;-6.134;2023-04-24T06:07:20;9.10;90.80
38684;DHT22;24910;53.248;-6.134;2023-04-24T06:09:49;9.00;90.70
38684;DHT22;24910;53.248;-6.134;2023-04-24T06:12:18;9.00;90.80
38684;DHT22;24910;53.248;-6.134;2023-04-24T06:14:58;9.00;90.70
38684;DHT22;24910;53.248;-6.134;2023-04-24T06:17:49;9.00;90.70
38684;DHT22;24910;53.248;-6.134;2023-04-24T06:20:19;9.00;90.70
38684;DHT22;24910;53.248;-6.134;2023-04-24T06:22:48;9.00;90.70
38684;DHT22;24910;53.248;-6.134;2023-04-24T06:25:18;9.00;90.70
38684;DHT22;24910;53.248;-6.134;2023-04-24T06:27:47;9.00;90.70
38684;DHT22;24910;53.248;-6.134;2023-04-24T06:30:18;8.90;90.70
38684;DHT22;24910;53.248;-6.134;2023-04-24T06:32:47;8.80;90.80
38684;DHT22;24910;53.248;-6.134;2023-04-24T06:35:16;8.80;90.80
38684;DHT22;24910;53.248;-6.134;2023-04-24T06:37:46;8.80;90.70
38684;DHT22;24910;53.248;-6.134;2023-04-24T06:40:15;8.70;90.70
38684;DHT22;24910;53.248;-6.134;2023-04-24T06:42:46;8.70;90.70
38684;DHT22;24910;53.248;-6.134;2023-04-24T06:45:15;8.70;90.70
38684;DHT22;24910;53.248;-6.134;2023-04-24T06:47:47;8.60;90.60
38684;DHT22;24910;53.248;-6.134;2023-04-24T06:50:16;8.60;90.60
38684;DHT22;24910;53.248;-6.134;2023-04-24T06:52:45;8.50;90.60
38684;DHT22;24910;53.248;-6.134;2023-04-24T06:55:14;8.40;90.70
38684;DHT22;24910;53.248;-6.134;2023-04-24T06:57:44;8.40;90.80
38684;DHT22;24910;53.248;-6.134;2023-04-24T07:00:14;8.40;90.80
38684;DHT22;24910;53.248;-6.134;2023-04-24T07:02:43;8.40;90.80
38684;DHT22;24910;53.248;-6.134;2023-04-24T07:05:14;8.40;90.80
38684;DHT22;24910;53.248;-6.134;2023-04-24T07:07:43;8.40;90.70
38684;DHT22;24910;53.248;-6.134;2023-04-24T07:10:12;8.30;90.60
38684;DHT22;24910;53.248;-6.134;2023-04-24T07:12:42;8.30;90.60
38684;DHT22;24910;53.248;-6.134;2023-04-24T07:15:11;8.20;90.60
38684;DHT22;24910;53.248;-6.134;2023-04-24T07:17:40;8.20;90.60
38684;DHT22;24910;53.248;-6.134;2023-04-24T07:20:11;8.20;90.50
38684;DHT22;24910;53.248;-6.134;2023-04-24T07:22:43;8.20;90.50
38684;DHT22;24910;53.248;-6.134;2023-04-24T07:25:12;8.20;90.50
38684;DHT22;24910;53.248;-6.134;2023-04-24T07:27:41;8.20;90.50
38684;DHT22;24910;53.248;-6.134;2023-04-24T07:30:11;8.20;90.50
38684;DHT22;24910;53.248;-6.134;2023-04-24T07:32:40;8.20;90.40
38684;DHT22;24910;53.248;-6.134;2023-04-24T07:35:09;8.30;90.40
38684;DHT22;24910;53.248;-6.134;2023-04-24T07:37:38;8.30;90.40
38684;DHT22;24910;53.248;-6.134;2023-04-24T07:40:10;8.30;90.50
38684;DHT22;24910;53.248;-6.134;2023-04-24T07:42:39;8.30;90.60
38684;DHT22;24910;53.248;-6.134;2023-04-24T07:45:09;8.30;90.50
38684;DHT22;24910;53.248;-6.134;2023-04-24T07:47:38;8.30;90.50
38684;DHT22;24910;53.248;-6.134;2023-04-24T07:50:08;8.30;90.50
38684;DHT22;24910;53.248;-6.134;2023-04-24T07:52:37;8.30;90.50
38684;DHT22;24910;53.248;-6.134;2023-04-24T07:55:06;8.30;90.60
38684;DHT22;24910;53.248;-6.134;2023-04-24T07:57:37;8.30;90.50
38684;DHT22;24910;53.248;-6.134;2023-04-24T08:00:07;8.30;90.50
38684;DHT22;24910;53.248;-6.134;2023-04-24T08:02:40;8.30;90.50
38684;DHT22;24910;53.248;-6.134;2023-04-24T08:05:09;8.30;90.50
38684;DHT22;24910;53.248;-6.134;2023-04-24T08:07:39;8.30;90.50
38684;DHT22;24910;53.248;-6.134;2023-04-24T08:10:10;8.30;90.50
38684;DHT22;24910;53.248;-6.134;2023-04-24T08:12:41;8.30;90.50
38684;DHT22;24910;53.248;-6.134;2023-04-24T08:15:10;8.40;90.50
38684;DHT22;24910;53.248;-6.134;2023-04-24T08:17:39;8.40;90.40
38684;DHT22;24910;53.248;-6.134;2023-04-24T08:20:09;8.40;90.30
38684;DHT22;24910;53.248;-6.134;2023-04-24T08:22:42;8.40;90.30
38684;DHT22;24910;53.248;-6.134;2023-04-24T08:25:11;8.40;90.30
38684;DHT22;24910;53.248;-6.134;2023-04-24T08:27:41;8.50;90.20
38684;DHT22;24910;53.248;-6.134;2023-04-24T08:30:11;8.50;90.20
38684;DHT22;24910;53.248;-6.134;2023-04-24T08:32:40;8.50;90.20
38684;DHT22;24910;53.248;-6.134;2023-04-24T08:35:10;8.60;90.20
38684;DHT22;24910;53.248;-6.134;2023-04-24T08:37:39;8.60;90.20
38684;DHT22;24910;53.248;-6.134;2023-04-24T08:40:12;8.70;90.20
38684;DHT22;24910;53.248;-6.134;2023-04-24T08:42:44;8.80;90.20
38684;DHT22;24910;53.248;-6.134;2023-04-24T08:45:13;8.80;90.30
38684;DHT22;24910;53.248;-6.134;2023-04-24T08:47:42;8.90;90.20
38684;DHT22;24910;53.248;-6.134;2023-04-24T08:50:13;8.90;90.20
38684;DHT22;24910;53.248;-6.134;2023-04-24T08:52:43;9.00;90.30
38684;DHT22;24910;53.248;-6.134;2023-04-24T08:55:12;9.00;90.20
38684;DHT22;24910;53.248;-6.134;2023-04-24T08:57:44;9.00;90.20
38684;DHT22;24910;53.248;-6.134;2023-04-24T09:00:16;9.00;90.10
38684;DHT22;24910;53.248;-6.134;2023-04-24T09:02:47;9.00;90.10
38684;DHT22;24910;53.248;-6.134;2023-04-24T09:05:17;9.00;90.10
38684;DHT22;24910;53.248;-6.134;2023-04-24T09:07:50;9.10;90.10
38684;DHT22;24910;53.248;-6.134;2023-04-24T09:10:24;9.20;90.00
38684;DHT22;24910;53.248;-6.134;2023-04-24T09:12:55;9.20;89.90
38684;DHT22;24910;53.248;-6.134;2023-04-24T09:15:25;9.30;89.80
38684;DHT22;24910;53.248;-6.134;2023-04-24T09:17:55;9.40;89.50
38684;DHT22;24910;53.248;-6.134;2023-04-24T09:20:25;9.50;89.20
38684;DHT22;24910;53.248;-6.134;2023-04-24T09:22:54;9.60;89.00
38684;DHT22;24910;53.248;-6.134;2023-04-24T09:25:31;9.60;88.80
38684;DHT22;24910;53.248;-6.134;2023-04-24T09:28:03;9.70;88.60
38684;DHT22;24910;53.248;-6.134;2023-04-24T09:30:34;9.80;88.40
38684;DHT22;24910;53.248;-6.134;2023-04-24T09:33:13;9.90;88.20
38684;DHT22;24910;53.248;-6.134;2023-04-24T09:35:43;9.90;88.10
38684;DHT22;24910;53.248;-6.134;2023-04-24T09:38:17;10.00;87.90
38684;DHT22;24910;53.248;-6.134;2023-04-24T09:40:46;10.00;87.60
38684;DHT22;24910;53.248;-6.134;2023-04-24T09:43:16;9.90;87.40
38684;DHT22;24910;53.248;-6.134;2023-04-24T09:45:46;9.90;87.40
38684;DHT22;24910;53.248;-6.134;2023-04-24T09:48:15;9.90;87.40
38684;DHT22;24910;53.248;-6.134;2023-04-24T09:50:46;10.00;87.20
38684;DHT22;24910;53.248;-6.134;2023-04-24T09:53:15;9.90;86.80
38684;DHT22;24910;53.248;-6.134;2023-04-24T09:55:45;10.00;86.50
38684;DHT22;24910;53.248;-6.134;2023-04-24T09:58:17;9.90;86.10
38684;DHT22;24910;53.248;-6.134;2023-04-24T10:00:47;9.90;86.10
38684;DHT22;24910;53.248;-6.134;2023-04-24T10:03:18;9.90;85.70
38684;DHT22;24910;53.248;-6.134;2023-04-24T10:05:47;9.90;85.70
38684;DHT22;24910;53.248;-6.134;2023-04-24T10:08:16;10.10;85.70
38684;DHT22;24910;53.248;-6.134;2023-04-24T10:10:46;10.10;85.50
38684;DHT22;24910;53.248;-6.134;2023-04-24T10:13:16;10.20;85.20
38684;DHT22;24910;53.248;-6.134;2023-04-24T10:15:46;10.20;84.70
38684;DHT22;24910;53.248;-6.134;2023-04-24T10:18:17;10.20;84.20
38684;DHT22;24910;53.248;-6.134;2023-04-24T10:20:46;10.20;84.10
38684;DHT22;24910;53.248;-6.134;2023-04-24T10:23:16;10.20;83.70
38684;DHT22;24910;53.248;-6.134;2023-04-24T10:25:47;10.20;83.30
38684;DHT22;24910;53.248;-6.134;2023-04-24T10:28:19;10.20;83.10
38684;DHT22;24910;53.248;-6.134;2023-04-24T10:30:49;10.20;82.90
38684;DHT22;24910;53.248;-6.134;2023-04-24T10:33:19;10.30;82.80
38684;DHT22;24910;53.248;-6.134;2023-04-24T10:35:51;10.30;82.00
38684;DHT22;24910;53.248;-6.134;2023-04-24T10:38:24;10.30;81.70
38684;DHT22;24910;53.248;-6.134;2023-04-24T10:40:58;10.30;81.70
38684;DHT22;24910;53.248;-6.134;2023-04-24T10:43:36;10.40;81.20
38684;DHT22;24910;53.248;-6.134;2023-04-24T10:46:08;10.50;81.40
38684;DHT22;24910;53.248;-6.134;2023-04-24T10:48:42;10.50;80.80
38684;DHT22;24910;53.248;-6.134;2023-04-24T10:51:12;10.50;80.40
38684;DHT22;24910;53.248;-6.134;2023-04-24T10:53:42;10.50;80.10
38684;DHT22;24910;53.248;-6.134;2023-04-24T10:56:11;10.60;79.80
38684;DHT22;24910;53.248;-6.134;2023-04-24T10:58:50;10.70;79.80
38684;DHT22;24910;53.248;-6.134;2023-04-24T11:01:24;10.80;79.20
38684;DHT22;24910;53.248;-6.134;2023-04-24T11:03:58;10.80;78.40
38684;DHT22;24910;53.248;-6.134;2023-04-24T11:06:29;10.90;78.30
38684;DHT22;24910;53.248;-6.134;2023-04-24T11:09:03;10.80;77.90
38684;DHT22;24910;53.248;-6.134;2023-04-24T11:11:35;10.70;77.10
38684;DHT22;24910;53.248;-6.134;2023-04-24T11:14:09;10.60;77.10
38684;DHT22;24910;53.248;-6.134;2023-04-24T11:16:52;10.60;77.00
38684;DHT22;24910;53.248;-6.134;2023-04-24T11:19:23;10.70;77.10
38684;DHT22;24910;53.248;-6.134;2023-04-24T11:21:57;10.80;77.10
38684;DHT22;24910;53.248;-6.134;2023-04-24T11:24:30;10.90;76.70
38684;DHT22;24910;53.248;-6.134;2023-04-24T11:27:06;10.90;76.20
38684;DHT22;24910;53.248;-6.134;2023-04-24T11:29:42;11.00;75.50
38684;DHT22;24910;53.248;-6.134;2023-04-24T11:32:25;10.90;75.10
38684;DHT22;24910;53.248;-6.134;2023-04-24T11:34:56;10.80;75.00
38684;DHT22;24910;53.248;-6.134;2023-04-24T11:37:27;10.80;74.90
38684;DHT22;24910;53.248;-6.134;2023-04-24T11:39:57;10.70;74.90
38684;DHT22;24910;53.248;-6.134;2023-04-24T11:42:29;10.70;75.20
38684;DHT22;24910;53.248;-6.134;2023-04-24T11:45:07;10.70;74.70
38684;DHT22;24910;53.248;-6.134;2023-04-24T11:47:37;10.70;74.40
38684;DHT22;24910;53.248;-6.134;2023-04-24T11:50:08;10.70;74.60
38684;DHT22;24910;53.248;-6.134;2023-04-24T11:52:39;10.80;74.20
38684;DHT22;24910;53.248;-6.134;2023-04-24T11:55:23;10.80;73.70
38684;DHT22;24910;53.248;-6.134;2023-04-24T11:57:55;10.80;73.70
38684;DHT22;24910;53.248;-6.134;2023-04-24T12:00:28;10.90;73.20
38684;DHT22;24910;53.248;-6.134;2023-04-24T12:03:05;10.90;72.90
38684;DHT22;24910;53.248;-6.134;2023-04-24T12:05:35;10.90;72.40
38684;DHT22;24910;53.248;-6.134;2023-04-24T12:08:06;10.90;72.20
38684;DHT22;24910;53.248;-6.134;2023-04-24T12:10:35;10.80;72.00
38684;DHT22;24910;53.248;-6.134;2023-04-24T12:13:05;10.90;72.20
38684;DHT22;24910;53.248;-6.134;2023-04-24T12:15:35;10.80;72.10
38684;DHT22;24910;53.248;-6.134;2023-04-24T12:18:11;10.80;72.30
38684;DHT22;24910;53.248;-6.134;2023-04-24T12:20:41;10.90;72.50
38684;DHT22;24910;53.248;-6.134;2023-04-24T12:23:10;10.80;72.00
38684;DHT22;24910;53.248;-6.134;2023-04-24T12:25:39;10.80;72.00
38684;DHT22;24910;53.248;-6.134;2023-04-24T12:28:10;10.80;72.00
38684;DHT22;24910;53.248;-6.134;2023-04-24T12:30:42;10.70;72.10
38684;DHT22;24910;53.248;-6.134;2023-04-24T12:33:12;10.80;72.30
38684;DHT22;24910;53.248;-6.134;2023-04-24T12:35:46;10.90;72.00
38684;DHT22;24910;53.248;-6.134;2023-04-24T12:38:15;11.00;71.10
38684;DHT22;24910;53.248;-6.134;2023-04-24T12:40:45;10.90;70.60
38684;DHT22;24910;53.248;-6.134;2023-04-24T12:43:15;11.00;70.60
38684;DHT22;24910;53.248;-6.134;2023-04-24T12:45:47;11.00;70.20
38684;DHT22;24910;53.248;-6.134;2023-04-24T12:48:16;10.90;69.60
38684;DHT22;24910;53.248;-6.134;2023-04-24T12:50:45;10.90;69.40
38684;DHT22;24910;53.248;-6.134;2023-04-24T12:53:15;10.90;69.40
38684;DHT22;24910;53.248;-6.134;2023-04-24T12:55:44;10.80;68.90
38684;DHT22;24910;53.248;-6.134;2023-04-24T12:58:14;10.80;69.50
38684;DHT22;24910;53.248;-6.134;2023-04-24T13:00:46;10.80;68.40
38684;DHT22;24910;53.248;-6.134;2023-04-24T13:03:15;10.80;68.30
38684;DHT22;24910;53.248;-6.134;2023-04-24T13:05:44;10.80;69.70
38684;DHT22;24910;53.248;-6.134;2023-04-24T13:08:13;10.90;69.00
38684;DHT22;24910;53.248;-6.134;2023-04-24T13:10:42;10.90;69.00
38684;DHT22;24910;53.248;-6.134;2023-04-24T13:13:11;11.00;69.00
38684;DHT22;24910;53.248;-6.134;2023-04-24T13:15:40;10.90;68.90
38684;DHT22;24910;53.248;-6.134;2023-04-24T13:18:11;10.90;68.60
38684;DHT22;24910;53.248;-6.134;2023-04-24T13:20:40;10.90;68.40
38684;DHT22;24910;53.248;-6.134;2023-04-24T13:23:09;10.90;68.30
38684;DHT22;24910;53.248;-6.134;2023-04-24T13:25:39;11.00;68.30
38684;DHT22;24910;53.248;-6.134;2023-04-24T13:28:10;11.00;68.30
38684;DHT22;24910;53.248;-6.134;2023-04-24T13:30:39;11.10;68.40
38684;DHT22;24910;53.248;-6.134;2023-04-24T13:33:08;11.10;67.90
38684;DHT22;24910;53.248;-6.134;2023-04-24T13:35:39;11.10;67.90
38684;DHT22;24910;53.248;-6.134;2023-04-24T13:38:08;11.00;67.70
38684;DHT22;24910;53.248;-6.134;2023-04-24T13:40:37;11.10;67.60
38684;DHT22;24910;53.248;-6.134;2023-04-24T13:43:06;11.00;66.90
38684;DHT22;24910;53.248;-6.134;2023-04-24T13:45:35;10.90;66.40
38684;DHT22;24910;53.248;-6.134;2023-04-24T13:48:05;10.80;66.30
38684;DHT22;24910;53.248;-6.134;2023-04-24T13:50:36;10.80;66.60
38684;DHT22;24910;53.248;-6.134;2023-04-24T13:53:07;10.80;67.10
38684;DHT22;24910;53.248;-6.134;2023-04-24T13:55:36;10.70;67.20
38684;DHT22;24910;53.248;-6.134;2023-04-24T13:58:06;10.60;68.00
38684;DHT22;24910;53.248;-6.134;2023-04-24T14:00:36;10.60;67.40
38684;DHT22;24910;53.248;-6.134;2023-04-24T14:03:05;10.60;67.30
38684;DHT22;24910;53.248;-6.134;2023-04-24T14:05:34;10.60;66.80
38684;DHT22;24910;53.248;-6.134;2023-04-24T14:08:06;10.70;66.90
38684;DHT22;24910;53.248;-6.134;2023-04-24T14:10:36;10.70;67.00
38684;DHT22;24910;53.248;-6.134;2023-04-24T14:13:05;10.80;67.20
38684;DHT22;24910;53.248;-6.134;2023-04-24T14:15:35;10.80;67.30
38684;DHT22;24910;53.248;-6.134;2023-04-24T14:18:05;10.90;67.00
38684;DHT22;24910;53.248;-6.134;2023-04-24T14:20:34;10.90;67.00
38684;DHT22;24910;53.248;-6.134;2023-04-24T14:23:03;10.90;67.20
38684;DHT22;24910;53.248;-6.134;2023-04-24T14:25:34;10.90;67.20
38684;DHT22;24910;53.248;-6.134;2023-04-24T14:28:03;11.00;67.10
38684;DHT22;24910;53.248;-6.134;2023-04-24T14:30:32;11.00;66.20
38684;DHT22;24910;53.248;-6.134;2023-04-24T14:33:01;10.90;65.70
38684;DHT22;24910;53.248;-6.134;2023-04-24T14:35:30;10.90;65.40
38684;DHT22;24910;53.248;-6.134;2023-04-24T14:38:01;10.90;65.10
38684;DHT22;24910;53.248;-6.134;2023-04-24T14:40:30;10.80;65.00
38684;DHT22;24910;53.248;-6.134;2023-04-24T14:43:04;10.80;65.10
38684;DHT22;24910;53.248;-6.134;2023-04-24T14:45:34;10.90;65.40
38684;DHT22;24910;53.248;-6.134;2023-04-24T14:48:03;11.00;65.40
38684;DHT22;24910;53.248;-6.134;2023-04-24T14:50:32;11.00;65.00
38684;DHT22;24910;53.248;-6.134;2023-04-24T14:53:01;11.00;64.90
38684;DHT22;24910;53.248;-6.134;2023-04-24T14:55:31;11.00;64.80
38684;DHT22;24910;53.248;-6.134;2023-04-24T14:58:04;11.00;64.70
38684;DHT22;24910;53.248;-6.134;2023-04-24T15:00:33;10.90;65.00
38684;DHT22;24910;53.248;-6.134;2023-04-24T15:03:02;10.90;65.00
38684;DHT22;24910;53.248;-6.134;2023-04-24T15:05:31;10.90;64.80
38684;DHT22;24910;53.248;-6.134;2023-04-24T15:08:01;10.90;65.00
38684;DHT22;24910;53.248;-6.134;2023-04-24T15:10:30;10.90;65.00
38684;DHT22;24910;53.248;-6.134;2023-04-24T15:12:59;10.90;65.00
38684;DHT22;24910;53.248;-6.134;2023-04-24T15:15:30;10.90;65.00
38684;DHT22;24910;53.248;-6.134;2023-04-24T15:18:00;10.90;65.00
38684;DHT22;24910;53.248;-6.134;2023-04-24T15:20:29;11.00;65.00
38684;DHT22;24910;53.248;-6.134;2023-04-24T15:22:58;11.00;64.90
38684;DHT22;24910;53.248;-6.134;2023-04-24T15:25:30;11.00;65.00
38684;DHT22;24910;53.248;-6.134;2023-04-24T15:27:59;11.10;65.00
38684;DHT22;24910;53.248;-6.134;2023-04-24T15:30:30;11.10;64.90
38684;DHT22;24910;53.248;-6.134;2023-04-24T15:33:00;11.10;64.90
38684;DHT22;24910;53.248;-6.134;2023-04-24T15:35:29;11.10;64.70
38684;DHT22;24910;53.248;-6.134;2023-04-24T15:37:59;11.00;64.40
38684;DHT22;24910;53.248;-6.134;2023-04-24T15:40:28;11.00;64.20
38684;DHT22;24910;53.248;-6.134;2023-04-24T15:42:57;11.00;64.10